< Typhoon 196220 1962 Season Typhoon 196222 >
Typhoon 196221 (DINAH)
General InformationTrack Information on Google Maps || Disaster Info.ResourceGoogle EarthGE AnimationAtom FeedGeoJSON
Detalied Best Track (Time Zone = UTC)
Year Month Day Hour Lat. Long. Pressure (hPa) Wind (kt) Class Image Chart
1962 9 24 18 12.0 144.4 1008 0 2 -- Chart
1962 9 25 00 12.2 143.7 1008 0 2 -- Chart
1962 9 25 06 12.9 143.0 1006 0 2 -- Chart
1962 9 25 12 13.0 142.0 1008 0 2 -- Chart
1962 9 25 18 12.8 141.0 1006 0 2 -- Chart
1962 9 26 00 12.6 140.4 1006 0 2 -- Chart
1962 9 26 06 12.9 140.2 1004 0 2 -- Chart
1962 9 26 12 13.0 140.0 1006 0 2 -- Chart
1962 9 26 18 13.2 139.9 1004 0 2 -- Chart
1962 9 27 00 13.4 139.9 1002 0 2 -- Chart
1962 9 27 06 13.6 139.8 1000 0 2 -- Chart
1962 9 27 12 13.8 139.7 1000 0 2 -- Chart
1962 9 27 18 14.0 139.6 1000 0 2 -- Chart
1962 9 28 00 14.3 139.5 1000 0 2 -- Chart
1962 9 28 06 14.9 139.0 1000 0 2 -- Chart
1962 9 28 12 15.4 138.7 1002 0 2 -- Chart
1962 9 28 18 15.8 138.5 1000 0 2 -- Chart
1962 9 29 00 16.5 138.1 1000 0 9 -- Chart
1962 9 29 06 17.3 137.9 1000 0 9 -- Chart
1962 9 29 12 18.0 137.6 998 0 9 -- Chart
1962 9 29 18 18.7 137.4 996 0 9 -- Chart
1962 9 30 00 19.4 137.1 990 0 9 -- Chart
1962 9 30 06 20.0 136.0 985 0 9 -- Chart
1962 9 30 12 20.4 134.8 980 0 9 -- Chart
1962 9 30 18 20.7 133.4 975 0 9 -- Chart
1962 10 1 00 20.8 131.7 970 0 9 -- Chart
1962 10 1 06 20.9 130.0 970 0 9 -- Chart
1962 10 1 12 20.9 128.5 965 0 9 -- Chart
1962 10 1 18 20.8 127.1 960 0 9 -- Chart
1962 10 2 00 20.7 125.8 955 0 9 -- Chart
1962 10 2 06 20.6 124.3 955 0 9 -- Chart
1962 10 2 12 21.0 122.9 955 0 9 -- Chart
1962 10 2 18 21.4 121.2 955 0 9 -- Chart
1962 10 3 00 22.0 119.5 955 0 9 -- Chart
1962 10 3 06 22.3 117.7 965 0 9 -- Chart
1962 10 3 12 22.5 116.4 970 0 9 -- Chart
1962 10 3 18 22.6 115.8 980 0 9 -- Chart
1962 10 4 00 22.8 115.0 990 0 9 -- Chart
1962 10 4 06 23.0 114.0 1002 0 2 -- Chart
1962 10 4 12 23.0 113.0 1002 0 2 -- Chart
1962 10 4 18 22.0 112.4 1006 0 2 -- Chart
1962 10 5 00 21.5 112.4 1006 0 2 -- Chart
1962 10 5 06 20.6 111.8 1006 0 2 -- Chart
1962 10 5 12 20.0 110.7 1008 0 2 -- Chart
Japan Meteorological Agency Best Track Data | Correction Date : 1989-06-01
< Typhoon 196220 1962 Season Typhoon 196222 >

Help